Terminal Aerodrome Forecast
Issued by NWS

Home | Current Version | Previous Version | Text Only | Print | Product List | Glossary On
Versions: 1 2 3 4 5 6 7 8 9 10 11 12 13 14 15 16 17 18 19 20 21 22 23 24 25 26 27
000
FTUS42 KCAE 242300
TAFCUB
TAF
KCUB 242326Z 2500/2524 VRB03KT P6SM BKN100
     FM250800 VRB03KT P6SM OVC050
     FM251300 17006KT 6SM -RA OVC025 WS020/22030KT
     FM251600 17008KT 3SM -SHRA BR SCT007 OVC012 WS020/22030KT
     FM252100 21010KT P6SM BKN015=

USA.gov is the U.S. government's official web portal to all federal, state and local government web resources and services.